sensor_id;sensor_type;location;lat;lon;timestamp;pressure;altitude;pressure_sealevel;temperature;humidity
15646;BME280;7922;43.622;1.476;2023-10-19T00:00:50;98442.28;;;16.63;100.00
15646;BME280;7922;43.622;1.476;2023-10-19T00:03:17;98382.75;;;16.32;100.00
15646;BME280;7922;43.622;1.476;2023-10-19T00:05:44;98468.47;;;16.89;100.00
15646;BME280;7922;43.622;1.476;2023-10-19T00:08:09;98418.22;;;16.63;100.00
15646;BME280;7922;43.622;1.476;2023-10-19T00:10:34;98324.81;;;16.03;100.00
15646;BME280;7922;43.622;1.476;2023-10-19T00:13:00;98454.81;;;16.82;100.00
15646;BME280;7922;43.622;1.476;2023-10-19T00:15:26;98427.47;;;16.59;100.00
15646;BME280;7922;43.622;1.476;2023-10-19T00:17:51;98439.47;;;16.74;100.00
15646;BME280;7922;43.622;1.476;2023-10-19T00:20:17;98427.31;;;16.70;100.00
15646;BME280;7922;43.622;1.476;2023-10-19T00:22:42;98293.03;;;16.00;100.00
15646;BME280;7922;43.622;1.476;2023-10-19T00:25:07;98374.88;;;16.50;100.00
15646;BME280;7922;43.622;1.476;2023-10-19T00:27:32;98293.75;;;16.02;100.00
15646;BME280;7922;43.622;1.476;2023-10-19T00:29:58;98402.56;;;16.68;100.00
15646;BME280;7922;43.622;1.476;2023-10-19T00:32:23;98356.44;;;16.47;100.00
15646;BME280;7922;43.622;1.476;2023-10-19T00:34:48;98289.53;;;16.09;100.00
15646;BME280;7922;43.622;1.476;2023-10-19T00:37:13;98298.69;;;16.17;100.00
15646;BME280;7922;43.622;1.476;2023-10-19T00:39:39;98379.19;;;16.70;100.00
15646;BME280;7922;43.622;1.476;2023-10-19T00:42:04;98349.25;;;16.57;100.00
15646;BME280;7922;43.622;1.476;2023-10-19T00:44:29;98293.19;;;16.28;100.00
15646;BME280;7922;43.622;1.476;2023-10-19T00:46:54;98331.81;;;16.53;100.00
15646;BME280;7922;43.622;1.476;2023-10-19T00:49:20;98357.16;;;16.78;100.00
15646;BME280;7922;43.622;1.476;2023-10-19T00:51:47;98344.16;;;16.83;100.00
15646;BME280;7922;43.622;1.476;2023-10-19T00:54:23;98236.50;;;16.24;100.00
15646;BME280;7922;43.622;1.476;2023-10-19T00:56:50;98199.13;;;16.15;100.00
15646;BME280;7922;43.622;1.476;2023-10-19T00:59:17;98290.56;;;16.65;100.00
15646;BME280;7922;43.622;1.476;2023-10-19T01:01:43;98193.78;;;16.15;100.00
15646;BME280;7922;43.622;1.476;2023-10-19T01:04:12;98266.22;;;16.58;100.00
15646;BME280;7922;43.622;1.476;2023-10-19T01:06:37;98265.81;;;16.63;100.00
15646;BME280;7922;43.622;1.476;2023-10-19T01:09:03;98302.09;;;16.85;100.00
15646;BME280;7922;43.622;1.476;2023-10-19T01:11:28;98268.03;;;16.77;100.00
15646;BME280;7922;43.622;1.476;2023-10-19T01:13:54;98263.69;;;16.76;100.00
15646;BME280;7922;43.622;1.476;2023-10-19T01:16:19;98171.09;;;16.28;100.00
15646;BME280;7922;43.622;1.476;2023-10-19T01:18:44;98275.03;;;16.88;100.00
15646;BME280;7922;43.622;1.476;2023-10-19T01:21:10;98272.22;;;16.90;100.00
15646;BME280;7922;43.622;1.476;2023-10-19T01:23:35;98303.41;;;16.99;100.00
15646;BME280;7922;43.622;1.476;2023-10-19T01:26:01;98222.06;;;16.54;100.00
15646;BME280;7922;43.622;1.476;2023-10-19T01:28:31;98333.63;;;17.19;100.00
15646;BME280;7922;43.622;1.476;2023-10-19T01:30:56;98217.56;;;16.55;100.00
15646;BME280;7922;43.622;1.476;2023-10-19T01:33:21;98191.47;;;16.39;100.00
15646;BME280;7922;43.622;1.476;2023-10-19T01:35:47;98232.84;;;16.72;100.00
15646;BME280;7922;43.622;1.476;2023-10-19T01:38:12;98280.31;;;17.07;100.00
15646;BME280;7922;43.622;1.476;2023-10-19T01:40:38;98291.09;;;17.16;100.00
15646;BME280;7922;43.622;1.476;2023-10-19T01:43:03;98230.56;;;16.87;100.00
15646;BME280;7922;43.622;1.476;2023-10-19T01:45:29;98249.50;;;17.03;100.00
15646;BME280;7922;43.622;1.476;2023-10-19T01:47:54;98178.28;;;16.65;100.00
15646;BME280;7922;43.622;1.476;2023-10-19T01:50:19;98289.59;;;17.31;100.00
15646;BME280;7922;43.622;1.476;2023-10-19T01:52:44;98178.28;;;16.65;100.00
15646;BME280;7922;43.622;1.476;2023-10-19T01:55:10;98220.94;;;16.94;100.00
15646;BME280;7922;43.622;1.476;2023-10-19T01:57:35;98255.56;;;17.23;100.00
15646;BME280;7922;43.622;1.476;2023-10-19T02:00:00;98255.66;;;17.31;100.00
15646;BME280;7922;43.622;1.476;2023-10-19T02:02:26;98236.91;;;17.31;100.00
15646;BME280;7922;43.622;1.476;2023-10-19T02:04:51;98158.44;;;16.95;100.00
15646;BME280;7922;43.622;1.476;2023-10-19T02:07:16;98161.97;;;17.14;100.00
15646;BME280;7922;43.622;1.476;2023-10-19T02:09:41;98116.16;;;16.99;100.00
15646;BME280;7922;43.622;1.476;2023-10-19T02:12:07;98113.28;;;17.10;100.00
15646;BME280;7922;43.622;1.476;2023-10-19T02:14:32;98188.31;;;17.54;100.00
15646;BME280;7922;43.622;1.476;2023-10-19T02:17:00;98192.19;;;17.60;100.00
15646;BME280;7922;43.622;1.476;2023-10-19T02:19:27;98196.41;;;17.62;100.00
15646;BME280;7922;43.622;1.476;2023-10-19T02:21:57;98206.88;;;17.73;100.00
15646;BME280;7922;43.622;1.476;2023-10-19T02:24:23;98176.13;;;17.60;100.00
15646;BME280;7922;43.622;1.476;2023-10-19T02:26:53;98151.50;;;17.56;100.00
15646;BME280;7922;43.622;1.476;2023-10-19T02:29:19;98159.06;;;17.61;100.00
15646;BME280;7922;43.622;1.476;2023-10-19T02:31:44;98146.53;;;17.61;100.00
15646;BME280;7922;43.622;1.476;2023-10-19T02:34:11;98178.22;;;17.84;100.00
15646;BME280;7922;43.622;1.476;2023-10-19T02:36:38;98134.13;;;17.60;100.00
15646;BME280;7922;43.622;1.476;2023-10-19T02:39:06;98061.69;;;17.18;100.00
15646;BME280;7922;43.622;1.476;2023-10-19T02:41:32;98095.53;;;17.45;100.00
15646;BME280;7922;43.622;1.476;2023-10-19T02:43:57;98024.31;;;17.08;100.00
15646;BME280;7922;43.622;1.476;2023-10-19T02:46:22;98106.00;;;17.56;100.00
15646;BME280;7922;43.622;1.476;2023-10-19T02:48:47;98104.06;;;17.66;100.00
15646;BME280;7922;43.622;1.476;2023-10-19T02:51:13;98137.03;;;17.85;100.00
15646;BME280;7922;43.622;1.476;2023-10-19T02:53:41;98109.81;;;17.53;100.00
15646;BME280;7922;43.622;1.476;2023-10-19T02:56:14;98109.81;;;17.53;100.00
15646;BME280;7922;43.622;1.476;2023-10-19T02:58:41;98132.53;;;17.67;100.00
15646;BME280;7922;43.622;1.476;2023-10-19T03:01:12;98140.84;;;17.82;100.00
15646;BME280;7922;43.622;1.476;2023-10-19T03:03:37;98111.41;;;17.64;100.00
15646;BME280;7922;43.622;1.476;2023-10-19T03:06:03;98026.91;;;17.18;100.00
15646;BME280;7922;43.622;1.476;2023-10-19T03:08:28;98019.88;;;17.17;100.00
15646;BME280;7922;43.622;1.476;2023-10-19T03:10:53;98078.03;;;17.50;100.00
15646;BME280;7922;43.622;1.476;2023-10-19T03:13:19;98120.78;;;17.86;100.00
15646;BME280;7922;43.622;1.476;2023-10-19T03:15:44;98117.28;;;17.86;100.00
15646;BME280;7922;43.622;1.476;2023-10-19T03:18:09;98070.81;;;17.51;100.00
15646;BME280;7922;43.622;1.476;2023-10-19T03:20:37;98060.56;;;17.46;100.00
15646;BME280;7922;43.622;1.476;2023-10-19T03:23:02;98103.53;;;17.80;100.00
15646;BME280;7922;43.622;1.476;2023-10-19T03:25:28;98099.50;;;17.76;100.00
15646;BME280;7922;43.622;1.476;2023-10-19T03:27:54;98102.59;;;17.72;100.00
15646;BME280;7922;43.622;1.476;2023-10-19T03:30:19;98030.94;;;17.40;100.00
15646;BME280;7922;43.622;1.476;2023-10-19T03:32:44;98006.41;;;17.26;100.00
15646;BME280;7922;43.622;1.476;2023-10-19T03:35:10;98103.88;;;17.86;100.00
15646;BME280;7922;43.622;1.476;2023-10-19T03:37:35;98078.47;;;17.72;100.00
15646;BME280;7922;43.622;1.476;2023-10-19T03:40:01;98080.56;;;17.78;100.00
15646;BME280;7922;43.622;1.476;2023-10-19T03:42:26;98047.25;;;17.54;100.00
15646;BME280;7922;43.622;1.476;2023-10-19T03:44:51;98104.94;;;17.93;100.00
15646;BME280;7922;43.622;1.476;2023-10-19T03:47:17;98023.56;;;17.42;100.00
15646;BME280;7922;43.622;1.476;2023-10-19T03:49:42;98099.47;;;18.02;100.00
15646;BME280;7922;43.622;1.476;2023-10-19T03:52:08;98064.50;;;17.78;100.00
15646;BME280;7922;43.622;1.476;2023-10-19T03:54:34;98005.88;;;17.49;100.00
15646;BME280;7922;43.622;1.476;2023-10-19T03:56:59;98074.50;;;17.94;100.00
15646;BME280;7922;43.622;1.476;2023-10-19T03:59:24;98039.50;;;17.69;100.00
15646;BME280;7922;43.622;1.476;2023-10-19T04:01:50;97984.41;;;17.41;100.00
15646;BME280;7922;43.622;1.476;2023-10-19T04:04:15;98029.72;;;17.60;100.00
15646;BME280;7922;43.622;1.476;2023-10-19T04:06:40;98050.44;;;17.76;100.00
15646;BME280;7922;43.622;1.476;2023-10-19T04:09:06;98075.16;;;17.96;100.00
15646;BME280;7922;43.622;1.476;2023-10-19T04:11:32;97970.81;;;17.34;100.00
15646;BME280;7922;43.622;1.476;2023-10-19T04:14:01;98010.75;;;17.53;100.00
15646;BME280;7922;43.622;1.476;2023-10-19T04:16:26;98063.72;;;17.86;100.00
15646;BME280;7922;43.622;1.476;2023-10-19T04:18:51;97982.22;;;17.36;100.00
15646;BME280;7922;43.622;1.476;2023-10-19T04:21:17;98068.44;;;17.92;100.00
15646;BME280;7922;43.622;1.476;2023-10-19T04:23:42;98067.28;;;17.94;100.00
15646;BME280;7922;43.622;1.476;2023-10-19T04:26:07;97910.28;;;17.07;100.00
15646;BME280;7922;43.622;1.476;2023-10-19T04:28:33;98001.16;;;17.69;100.00
15646;BME280;7922;43.622;1.476;2023-10-19T04:30:58;97920.41;;;17.21;100.00
15646;BME280;7922;43.622;1.476;2023-10-19T04:33:23;98005.03;;;17.74;100.00
15646;BME280;7922;43.622;1.476;2023-10-19T04:35:48;97976.53;;;17.65;100.00
15646;BME280;7922;43.622;1.476;2023-10-19T04:38:14;98003.59;;;17.80;100.00
15646;BME280;7922;43.622;1.476;2023-10-19T04:40:39;98004.44;;;17.80;100.00
15646;BME280;7922;43.622;1.476;2023-10-19T04:43:04;97926.53;;;17.40;100.00
15646;BME280;7922;43.622;1.476;2023-10-19T04:45:29;97930.19;;;17.39;100.00
15646;BME280;7922;43.622;1.476;2023-10-19T04:47:55;98015.50;;;17.86;100.00
15646;BME280;7922;43.622;1.476;2023-10-19T04:50:20;98011.09;;;17.76;100.00
15646;BME280;7922;43.622;1.476;2023-10-19T04:52:46;98057.97;;;18.07;100.00
15646;BME280;7922;43.622;1.476;2023-10-19T04:55:11;98012.94;;;17.76;100.00
15646;BME280;7922;43.622;1.476;2023-10-19T04:57:36;98025.06;;;17.88;100.00
15646;BME280;7922;43.622;1.476;2023-10-19T05:00:02;97994.28;;;17.66;100.00
15646;BME280;7922;43.622;1.476;2023-10-19T05:02:27;98022.50;;;17.78;100.00
15646;BME280;7922;43.622;1.476;2023-10-19T05:04:53;97968.41;;;17.49;100.00
15646;BME280;7922;43.622;1.476;2023-10-19T05:07:18;98053.59;;;17.97;100.00
15646;BME280;7922;43.622;1.476;2023-10-19T05:09:44;97993.66;;;17.72;100.00
15646;BME280;7922;43.622;1.476;2023-10-19T05:12:10;97917.47;;;17.32;100.00
15646;BME280;7922;43.622;1.476;2023-10-19T05:14:36;97984.84;;;17.80;100.00
15646;BME280;7922;43.622;1.476;2023-10-19T05:17:02;98000.59;;;17.83;100.00
15646;BME280;7922;43.622;1.476;2023-10-19T05:19:27;98009.47;;;17.84;100.00
15646;BME280;7922;43.622;1.476;2023-10-19T05:21:52;97946.69;;;17.52;100.00
15646;BME280;7922;43.622;1.476;2023-10-19T05:24:17;97988.69;;;17.77;100.00
15646;BME280;7922;43.622;1.476;2023-10-19T05:26:43;97977.59;;;17.72;100.00
15646;BME280;7922;43.622;1.476;2023-10-19T05:29:08;97955.56;;;17.61;100.00
15646;BME280;7922;43.622;1.476;2023-10-19T05:31:33;97961.84;;;17.69;100.00
15646;BME280;7922;43.622;1.476;2023-10-19T05:33:58;97913.63;;;17.35;100.00
15646;BME280;7922;43.622;1.476;2023-10-19T05:36:24;97968.50;;;17.65;100.00
15646;BME280;7922;43.622;1.476;2023-10-19T05:38:49;97974.00;;;17.64;100.00
15646;BME280;7922;43.622;1.476;2023-10-19T05:41:14;97968.34;;;17.67;100.00
15646;BME280;7922;43.622;1.476;2023-10-19T05:43:39;97912.72;;;17.52;100.00
15646;BME280;7922;43.622;1.476;2023-10-19T05:46:05;97859.63;;;17.14;100.00
15646;BME280;7922;43.622;1.476;2023-10-19T05:48:31;97891.75;;;17.40;100.00
15646;BME280;7922;43.622;1.476;2023-10-19T05:50:56;97896.94;;;17.41;100.00
15646;BME280;7922;43.622;1.476;2023-10-19T05:53:21;97890.31;;;17.27;100.00
15646;BME280;7922;43.622;1.476;2023-10-19T05:55:46;97911.84;;;17.44;100.00
15646;BME280;7922;43.622;1.476;2023-10-19T05:58:12;97861.91;;;17.26;100.00
15646;BME280;7922;43.622;1.476;2023-10-19T06:00:37;97888.38;;;17.38;100.00
15646;BME280;7922;43.622;1.476;2023-10-19T06:03:03;97863.56;;;17.27;100.00
15646;BME280;7922;43.622;1.476;2023-10-19T06:05:28;97792.44;;;16.82;100.00
15646;BME280;7922;43.622;1.476;2023-10-19T06:07:53;97879.09;;;17.24;100.00
15646;BME280;7922;43.622;1.476;2023-10-19T06:10:20;97864.69;;;17.17;100.00
15646;BME280;7922;43.622;1.476;2023-10-19T06:12:47;97832.13;;;16.95;100.00
15646;BME280;7922;43.622;1.476;2023-10-19T06:15:14;97879.38;;;17.13;100.00
15646;BME280;7922;43.622;1.476;2023-10-19T06:17:41;97854.38;;;16.96;100.00
15646;BME280;7922;43.622;1.476;2023-10-19T06:20:08;97854.09;;;17.07;100.00
15646;BME280;7922;43.622;1.476;2023-10-19T06:22:36;97853.41;;;17.05;100.00
15646;BME280;7922;43.622;1.476;2023-10-19T06:25:03;97895.31;;;17.22;100.00
15646;BME280;7922;43.622;1.476;2023-10-19T06:27:28;97785.38;;;16.55;100.00
15646;BME280;7922;43.622;1.476;2023-10-19T06:29:53;97791.13;;;16.60;100.00
15646;BME280;7922;43.622;1.476;2023-10-19T06:32:19;97898.00;;;17.22;100.00
15646;BME280;7922;43.622;1.476;2023-10-19T06:34:44;97898.31;;;17.19;100.00
15646;BME280;7922;43.622;1.476;2023-10-19T06:37:09;97894.75;;;17.11;100.00
15646;BME280;7922;43.622;1.476;2023-10-19T06:39:34;97830.03;;;16.81;100.00
15646;BME280;7922;43.622;1.476;2023-10-19T06:42:00;97887.91;;;17.16;100.00
15646;BME280;7922;43.622;1.476;2023-10-19T06:44:25;97898.88;;;17.31;100.00
15646;BME280;7922;43.622;1.476;2023-10-19T06:46:50;97885.16;;;17.26;100.00
15646;BME280;7922;43.622;1.476;2023-10-19T06:49:15;97889.91;;;17.40;100.00
15646;BME280;7922;43.622;1.476;2023-10-19T06:51:41;97864.28;;;17.38;100.00
15646;BME280;7922;43.622;1.476;2023-10-19T06:54:06;97902.03;;;17.61;100.00
15646;BME280;7922;43.622;1.476;2023-10-19T06:56:31;97876.88;;;17.45;100.00
15646;BME280;7922;43.622;1.476;2023-10-19T06:58:56;97919.56;;;17.81;100.00
15646;BME280;7922;43.622;1.476;2023-10-19T07:01:22;97889.84;;;17.66;100.00
15646;BME280;7922;43.622;1.476;2023-10-19T07:03:47;97806.03;;;17.23;100.00
15646;BME280;7922;43.622;1.476;2023-10-19T07:06:12;97804.88;;;17.26;100.00
15646;BME280;7922;43.622;1.476;2023-10-19T07:08:37;97819.81;;;17.37;100.00
15646;BME280;7922;43.622;1.476;2023-10-19T07:11:03;97900.00;;;17.89;100.00
15646;BME280;7922;43.622;1.476;2023-10-19T07:13:28;97909.75;;;18.06;100.00
15646;BME280;7922;43.622;1.476;2023-10-19T07:15:53;97885.28;;;18.01;100.00
15646;BME280;7922;43.622;1.476;2023-10-19T07:18:18;97900.41;;;18.10;100.00
15646;BME280;7922;43.622;1.476;2023-10-19T07:20:44;97833.53;;;17.76;100.00
15646;BME280;7922;43.622;1.476;2023-10-19T07:23:12;97913.66;;;18.28;100.00
15646;BME280;7922;43.622;1.476;2023-10-19T07:25:37;97798.13;;;17.64;100.00
15646;BME280;7922;43.622;1.476;2023-10-19T07:28:02;97900.78;;;18.32;100.00
15646;BME280;7922;43.622;1.476;2023-10-19T07:30:28;97840.75;;;18.00;100.00
15646;BME280;7922;43.622;1.476;2023-10-19T07:32:53;97826.34;;;17.93;100.00
15646;BME280;7922;43.622;1.476;2023-10-19T07:35:19;97921.94;;;18.59;99.07
15646;BME280;7922;43.622;1.476;2023-10-19T07:37:44;97919.41;;;18.58;99.12
15646;BME280;7922;43.622;1.476;2023-10-19T07:40:10;97926.59;;;18.65;98.71
15646;BME280;7922;43.622;1.476;2023-10-19T07:42:35;97871.28;;;18.40;97.82
15646;BME280;7922;43.622;1.476;2023-10-19T07:45:01;97928.00;;;18.78;97.15
15646;BME280;7922;43.622;1.476;2023-10-19T07:47:26;97854.69;;;18.36;97.34
15646;BME280;7922;43.622;1.476;2023-10-19T07:49:51;97910.19;;;18.68;96.95
15646;BME280;7922;43.622;1.476;2023-10-19T07:52:16;97921.44;;;18.72;97.38
15646;BME280;7922;43.622;1.476;2023-10-19T07:54:42;97957.50;;;18.94;97.75
15646;BME280;7922;43.622;1.476;2023-10-19T07:57:07;97931.34;;;18.71;97.04
15646;BME280;7922;43.622;1.476;2023-10-19T07:59:33;97873.97;;;18.32;96.77
15646;BME280;7922;43.622;1.476;2023-10-19T08:01:58;97973.44;;;18.95;96.34
15646;BME280;7922;43.622;1.476;2023-10-19T08:04:24;97992.41;;;19.10;95.65
15646;BME280;7922;43.622;1.476;2023-10-19T08:06:49;97877.50;;;18.57;94.70
15646;BME280;7922;43.622;1.476;2023-10-19T08:09:14;97952.09;;;19.35;92.97
15646;BME280;7922;43.622;1.476;2023-10-19T08:11:39;97941.28;;;19.59;91.44
15646;BME280;7922;43.622;1.476;2023-10-19T08:14:05;97933.72;;;19.79;89.41
15646;BME280;7922;43.622;1.476;2023-10-19T08:16:30;97925.44;;;19.89;87.92
15646;BME280;7922;43.622;1.476;2023-10-19T08:18:57;97957.97;;;20.02;87.70
15646;BME280;7922;43.622;1.476;2023-10-19T08:21:22;97877.19;;;19.56;88.09
15646;BME280;7922;43.622;1.476;2023-10-19T08:23:48;97881.41;;;19.42;87.79
15646;BME280;7922;43.622;1.476;2023-10-19T08:26:13;97835.34;;;19.22;88.79
15646;BME280;7922;43.622;1.476;2023-10-19T08:28:38;97857.13;;;19.36;88.73
15646;BME280;7922;43.622;1.476;2023-10-19T08:31:08;97962.06;;;19.90;89.11
15646;BME280;7922;43.622;1.476;2023-10-19T08:33:33;97959.22;;;19.83;89.48
15646;BME280;7922;43.622;1.476;2023-10-19T08:35:58;97872.38;;;19.43;89.47
15646;BME280;7922;43.622;1.476;2023-10-19T08:38:23;97794.13;;;18.99;89.19
15646;BME280;7922;43.622;1.476;2023-10-19T08:40:49;97878.88;;;19.57;88.87
15646;BME280;7922;43.622;1.476;2023-10-19T08:43:15;97830.63;;;19.33;88.65
15646;BME280;7922;43.622;1.476;2023-10-19T08:45:41;97877.56;;;19.45;89.23
15646;BME280;7922;43.622;1.476;2023-10-19T08:48:07;97857.84;;;19.21;89.58
15646;BME280;7922;43.622;1.476;2023-10-19T08:50:33;97813.25;;;19.04;89.38
15646;BME280;7922;43.622;1.476;2023-10-19T08:53:01;97815.41;;;19.09;88.99
15646;BME280;7922;43.622;1.476;2023-10-19T08:55:26;97842.91;;;19.19;88.93
15646;BME280;7922;43.622;1.476;2023-10-19T08:57:53;97897.81;;;19.64;89.32
15646;BME280;7922;43.622;1.476;2023-10-19T09:00:19;97894.16;;;19.65;89.47
15646;BME280;7922;43.622;1.476;2023-10-19T09:02:45;97834.34;;;19.23;89.56
15646;BME280;7922;43.622;1.476;2023-10-19T09:05:11;97841.03;;;19.28;90.18
15646;BME280;7922;43.622;1.476;2023-10-19T09:07:36;97872.72;;;19.40;90.26
15646;BME280;7922;43.622;1.476;2023-10-19T09:10:02;97863.28;;;19.44;90.73
15646;BME280;7922;43.622;1.476;2023-10-19T09:12:27;97813.72;;;19.16;89.42
15646;BME280;7922;43.622;1.476;2023-10-19T09:14:52;97799.50;;;19.07;88.78
15646;BME280;7922;43.622;1.476;2023-10-19T09:17:27;97880.69;;;19.57;89.17
15646;BME280;7922;43.622;1.476;2023-10-19T09:19:53;97902.13;;;19.81;88.58
15646;BME280;7922;43.622;1.476;2023-10-19T09:22:18;97914.03;;;19.87;88.76
15646;BME280;7922;43.622;1.476;2023-10-19T09:24:48;97882.19;;;19.67;88.35
15646;BME280;7922;43.622;1.476;2023-10-19T09:27:16;97841.47;;;19.47;87.51
15646;BME280;7922;43.622;1.476;2023-10-19T09:29:42;97906.81;;;19.87;87.52
15646;BME280;7922;43.622;1.476;2023-10-19T09:32:07;97891.72;;;19.78;88.36
15646;BME280;7922;43.622;1.476;2023-10-19T09:34:33;97908.81;;;19.85;89.04
15646;BME280;7922;43.622;1.476;2023-10-19T09:37:00;97890.53;;;19.81;89.27
15646;BME280;7922;43.622;1.476;2023-10-19T09:39:25;97885.84;;;19.75;89.28
15646;BME280;7922;43.622;1.476;2023-10-19T09:41:51;97861.25;;;19.63;89.13
15646;BME280;7922;43.622;1.476;2023-10-19T09:44:19;97839.56;;;19.56;89.09
15646;BME280;7922;43.622;1.476;2023-10-19T09:46:47;97870.47;;;19.68;89.87
15646;BME280;7922;43.622;1.476;2023-10-19T09:49:14;97609.72;;;17.98;89.38
15646;BME280;7922;43.622;1.476;2023-10-19T09:51:40;97742.22;;;18.84;89.77
15646;BME280;7922;43.622;1.476;2023-10-19T09:54:20;97876.66;;;19.69;90.34
15646;BME280;7922;43.622;1.476;2023-10-19T09:56:54;97847.00;;;19.54;90.50
15646;BME280;7922;43.622;1.476;2023-10-19T09:59:35;97748.78;;;19.20;89.32
15646;BME280;7922;43.622;1.476;2023-10-19T10:02:12;97848.13;;;19.99;88.18
15646;BME280;7922;43.622;1.476;2023-10-19T10:04:37;97802.34;;;19.84;87.53
15646;BME280;7922;43.622;1.476;2023-10-19T10:07:07;97819.75;;;19.96;87.68
15646;BME280;7922;43.622;1.476;2023-10-19T10:09:38;97816.00;;;20.06;87.70
15646;BME280;7922;43.622;1.476;2023-10-19T10:12:18;97735.75;;;19.71;87.02
15646;BME280;7922;43.622;1.476;2023-10-19T10:14:57;97804.22;;;20.30;85.84
15646;BME280;7922;43.622;1.476;2023-10-19T10:17:24;97785.22;;;20.31;85.01
15646;BME280;7922;43.622;1.476;2023-10-19T10:19:49;97795.19;;;20.46;84.38
15646;BME280;7922;43.622;1.476;2023-10-19T10:22:15;97751.38;;;20.37;83.69
15646;BME280;7922;43.622;1.476;2023-10-19T10:24:41;97742.66;;;20.35;82.92
15646;BME280;7922;43.622;1.476;2023-10-19T10:27:07;97712.03;;;20.21;83.07
15646;BME280;7922;43.622;1.476;2023-10-19T10:29:32;97780.78;;;20.61;82.89
15646;BME280;7922;43.622;1.476;2023-10-19T10:31:58;97787.19;;;20.75;83.13
15646;BME280;7922;43.622;1.476;2023-10-19T10:34:43;97774.41;;;20.92;81.13
15646;BME280;7922;43.622;1.476;2023-10-19T10:37:13;97752.06;;;20.91;80.63
15646;BME280;7922;43.622;1.476;2023-10-19T10:39:39;97701.19;;;20.82;80.46
15646;BME280;7922;43.622;1.476;2023-10-19T10:42:06;97689.19;;;20.70;79.48
15646;BME280;7922;43.622;1.476;2023-10-19T10:44:39;97778.84;;;21.29;79.13
15646;BME280;7922;43.622;1.476;2023-10-19T10:47:10;97746.66;;;21.36;78.63
15646;BME280;7922;43.622;1.476;2023-10-19T10:52:12;97693.41;;;21.23;77.66
15646;BME280;7922;43.622;1.476;2023-10-19T10:54:38;97711.06;;;21.41;77.20
15646;BME280;7922;43.622;1.476;2023-10-19T10:57:03;97719.41;;;21.46;76.55
15646;BME280;7922;43.622;1.476;2023-10-19T10:59:29;97753.34;;;21.76;75.64
15646;BME280;7922;43.622;1.476;2023-10-19T11:01:54;97763.94;;;21.99;75.66
15646;BME280;7922;43.622;1.476;2023-10-19T11:04:19;97657.19;;;21.41;76.42
15646;BME280;7922;43.622;1.476;2023-10-19T11:06:52;97634.63;;;21.42;75.57
15646;BME280;7922;43.622;1.476;2023-10-19T11:09:18;97711.09;;;21.83;75.59
15646;BME280;7922;43.622;1.476;2023-10-19T11:11:45;97686.78;;;21.77;75.23
15646;BME280;7922;43.622;1.476;2023-10-19T11:14:11;97725.59;;;22.04;74.86
15646;BME280;7922;43.622;1.476;2023-10-19T11:16:36;97684.59;;;22.08;73.57
15646;BME280;7922;43.622;1.476;2023-10-19T11:19:02;97691.72;;;22.16;73.62
15646;BME280;7922;43.622;1.476;2023-10-19T11:21:27;97681.38;;;22.20;73.65
15646;BME280;7922;43.622;1.476;2023-10-19T11:23:52;97632.22;;;21.75;73.63
15646;BME280;7922;43.622;1.476;2023-10-19T11:26:22;97627.72;;;21.82;72.64
15646;BME280;7922;43.622;1.476;2023-10-19T11:28:56;97667.63;;;22.15;72.97
15646;BME280;7922;43.622;1.476;2023-10-19T11:31:23;97636.13;;;22.15;73.22
15646;BME280;7922;43.622;1.476;2023-10-19T11:33:52;97586.91;;;22.13;71.62
15646;BME280;7922;43.622;1.476;2023-10-19T11:36:18;97582.31;;;22.07;70.56
15646;BME280;7922;43.622;1.476;2023-10-19T11:38:46;97659.44;;;22.57;71.21
15646;BME280;7922;43.622;1.476;2023-10-19T11:41:12;97556.91;;;22.16;71.00
15646;BME280;7922;43.622;1.476;2023-10-19T11:43:39;97647.09;;;22.83;70.98
15646;BME280;7922;43.622;1.476;2023-10-19T11:46:04;97557.72;;;22.51;69.45
15646;BME280;7922;43.622;1.476;2023-10-19T11:48:31;97588.16;;;22.87;69.47
15646;BME280;7922;43.622;1.476;2023-10-19T11:50:57;97587.00;;;23.09;68.85
15646;BME280;7922;43.622;1.476;2023-10-19T11:53:22;97598.91;;;23.28;67.95
15646;BME280;7922;43.622;1.476;2023-10-19T11:55:47;97590.81;;;23.28;67.98
15646;BME280;7922;43.622;1.476;2023-10-19T11:58:12;97599.13;;;23.33;66.54
15646;BME280;7922;43.622;1.476;2023-10-19T12:00:38;97560.84;;;23.10;66.59
15646;BME280;7922;43.622;1.476;2023-10-19T12:03:04;97574.75;;;23.20;65.80
15646;BME280;7922;43.622;1.476;2023-10-19T12:05:29;97579.75;;;23.23;65.64
15646;BME280;7922;43.622;1.476;2023-10-19T12:07:54;97569.81;;;23.30;65.11
15646;BME280;7922;43.622;1.476;2023-10-19T12:10:20;97506.41;;;23.06;65.81
15646;BME280;7922;43.622;1.476;2023-10-19T12:12:45;97473.16;;;22.99;64.97
15646;BME280;7922;43.622;1.476;2023-10-19T12:15:10;97498.72;;;23.23;64.69
15646;BME280;7922;43.622;1.476;2023-10-19T12:17:36;97543.84;;;23.29;63.92
15646;BME280;7922;43.622;1.476;2023-10-19T12:20:01;97573.16;;;23.32;65.07
15646;BME280;7922;43.622;1.476;2023-10-19T12:22:26;97546.50;;;23.16;65.76
15646;BME280;7922;43.622;1.476;2023-10-19T12:24:51;97528.44;;;23.10;65.69
15646;BME280;7922;43.622;1.476;2023-10-19T12:27:17;97513.47;;;23.07;65.80
15646;BME280;7922;43.622;1.476;2023-10-19T12:29:42;97487.50;;;22.99;65.50
15646;BME280;7922;43.622;1.476;2023-10-19T12:32:07;97526.38;;;23.25;65.28
15646;BME280;7922;43.622;1.476;2023-10-19T12:34:32;97473.56;;;22.96;64.65
15646;BME280;7922;43.622;1.476;2023-10-19T12:36:58;97496.00;;;23.16;65.66
15646;BME280;7922;43.622;1.476;2023-10-19T12:39:23;97446.31;;;22.84;64.78
15646;BME280;7922;43.622;1.476;2023-10-19T12:41:48;97488.94;;;23.02;64.86
15646;BME280;7922;43.622;1.476;2023-10-19T12:44:14;97503.69;;;23.13;64.53
15646;BME280;7922;43.622;1.476;2023-10-19T12:46:39;97427.19;;;22.79;65.39
15646;BME280;7922;43.622;1.476;2023-10-19T12:49:05;97416.63;;;22.84;64.33
15646;BME280;7922;43.622;1.476;2023-10-19T12:51:30;97475.88;;;23.19;64.94
15646;BME280;7922;43.622;1.476;2023-10-19T12:53:55;97471.09;;;23.14;64.98
15646;BME280;7922;43.622;1.476;2023-10-19T12:56:21;97496.66;;;23.25;64.56
15646;BME280;7922;43.622;1.476;2023-10-19T12:58:46;97431.81;;;22.92;64.95
15646;BME280;7922;43.622;1.476;2023-10-19T13:01:12;97514.97;;;23.49;64.63